createdAt,value
2023-10-21T00:00:00.746Z,10.96
2023-10-21T00:05:00.383Z,10.94
2023-10-21T00:10:00.445Z,10.94
2023-10-21T00:15:00.471Z,10.89
2023-10-21T00:20:01.776Z,10.81
2023-10-21T00:25:00.362Z,10.79
2023-10-21T00:30:00.499Z,10.79
2023-10-21T00:35:00.416Z,10.79
2023-10-21T00:40:00.408Z,10.77
2023-10-21T00:45:00.421Z,10.79
2023-10-21T00:50:02.089Z,10.83
2023-10-21T00:55:01.405Z,10.84
2023-10-21T01:00:00.792Z,10.86
2023-10-21T01:05:00.375Z,10.87
2023-10-21T01:10:01.583Z,10.91
2023-10-21T01:15:00.527Z,10.90
2023-10-21T01:20:00.504Z,10.88
2023-10-21T01:25:00.416Z,10.87
2023-10-21T01:30:00.480Z,10.87
2023-10-21T01:35:00.391Z,10.89
2023-10-21T01:40:00.385Z,10.91
2023-10-21T01:45:00.514Z,10.92
2023-10-21T01:50:00.863Z,10.91
2023-10-21T01:55:00.680Z,10.92
2023-10-21T02:00:03.640Z,10.97
2023-10-21T02:05:00.407Z,10.97
2023-10-21T02:10:00.514Z,11.00
2023-10-21T02:15:00.717Z,11.02
2023-10-21T02:20:00.406Z,11.08
2023-10-21T02:25:02.117Z,11.09
2023-10-21T02:30:00.489Z,11.12
2023-10-21T02:35:00.463Z,11.09
2023-10-21T02:40:02.052Z,11.05
2023-10-21T02:45:00.371Z,11.03
2023-10-21T02:50:00.493Z,10.98
2023-10-21T02:55:00.362Z,10.98
2023-10-21T03:00:00.664Z,10.96
2023-10-21T03:05:00.522Z,10.95
2023-10-21T03:10:01.239Z,10.94
2023-10-21T03:15:00.433Z,10.92
2023-10-21T03:20:00.429Z,10.93
2023-10-21T03:25:00.365Z,10.91
2023-10-21T03:30:00.434Z,10.92
2023-10-21T03:35:00.406Z,10.94
2023-10-21T03:40:00.353Z,11.00
2023-10-21T03:45:00.407Z,10.99
2023-10-21T03:50:00.446Z,11.03
2023-10-21T03:55:00.340Z,11.05
2023-10-21T04:00:00.747Z,11.06
2023-10-21T04:05:00.411Z,10.99
2023-10-21T04:10:00.863Z,10.97
2023-10-21T04:15:00.403Z,10.94
2023-10-21T04:20:00.384Z,10.96
2023-10-21T04:25:00.467Z,10.95
2023-10-21T04:30:00.853Z,10.96
2023-10-21T04:35:00.792Z,10.96
2023-10-21T04:40:00.816Z,10.90
2023-10-21T04:45:00.692Z,10.85
2023-10-21T04:50:00.372Z,10.89
2023-10-21T04:55:00.431Z,10.89
2023-10-21T05:00:00.780Z,11.00
2023-10-21T05:05:00.373Z,11.00
2023-10-21T05:10:00.487Z,11.05
2023-10-21T05:15:00.405Z,11.09
2023-10-21T05:20:00.378Z,11.06
2023-10-21T05:25:00.705Z,11.05
2023-10-21T05:30:00.419Z,11.05
2023-10-21T05:35:00.434Z,11.06
2023-10-21T05:40:00.511Z,11.15
2023-10-21T05:45:00.465Z,11.30
2023-10-21T05:50:00.515Z,11.39
2023-10-21T05:55:00.705Z,11.31
2023-10-21T06:00:00.757Z,11.23
2023-10-21T06:05:00.445Z,11.15
2023-10-21T06:10:00.520Z,11.12
2023-10-21T06:15:00.647Z,11.07
2023-10-21T06:20:00.428Z,11.09
2023-10-21T06:25:00.434Z,11.14
2023-10-21T06:30:00.418Z,11.18
2023-10-21T06:35:00.492Z,11.24
2023-10-21T06:40:00.378Z,11.37
2023-10-21T06:45:00.414Z,11.51
2023-10-21T06:50:00.397Z,11.67
2023-10-21T06:55:00.368Z,11.75
2023-10-21T07:00:01.022Z,11.85
2023-10-21T07:05:00.404Z,11.97
2023-10-21T07:10:00.371Z,12.09
2023-10-21T07:15:00.745Z,12.19
2023-10-21T07:20:00.402Z,12.22
2023-10-21T07:25:00.378Z,12.27
2023-10-21T07:30:00.449Z,12.31
2023-10-21T07:35:00.364Z,12.38
2023-10-21T07:40:00.375Z,12.44
2023-10-21T07:45:00.392Z,12.51
2023-10-21T07:50:00.386Z,12.52
2023-10-21T07:55:00.365Z,12.53
2023-10-21T08:00:01.213Z,12.52
2023-10-21T08:05:01.049Z,12.51
2023-10-21T08:10:00.383Z,12.45
2023-10-21T08:15:04.531Z,12.29
2023-10-21T08:20:00.519Z,12.14
2023-10-21T08:25:00.350Z,12.16
2023-10-21T08:30:00.498Z,12.24
2023-10-21T08:35:00.410Z,12.47
2023-10-21T08:40:02.550Z,12.90
2023-10-21T08:45:02.870Z,13.41
2023-10-21T08:50:01.033Z,13.62
2023-10-21T08:55:02.747Z,13.56
2023-10-21T09:00:00.664Z,13.44
2023-10-21T09:05:00.380Z,13.26
2023-10-21T09:10:07.402Z,13.11
2023-10-21T09:15:00.402Z,13.45
2023-10-21T09:20:00.839Z,13.56
2023-10-21T09:25:08.394Z,13.49
2023-10-21T09:30:00.534Z,13.50
2023-10-21T09:35:19.411Z,13.50
2023-10-21T09:40:00.413Z,13.46
2023-10-21T09:45:01.180Z,13.36
2023-10-21T09:50:02.188Z,13.31
2023-10-21T09:55:10.404Z,13.33
2023-10-21T10:00:02.037Z,13.35
2023-10-21T10:05:09.371Z,13.49
2023-10-21T10:10:02.660Z,13.54
2023-10-21T10:15:24.725Z,13.51
2023-10-21T10:20:18.777Z,13.57
2023-10-21T10:25:08.244Z,13.73
2023-10-21T10:30:00.464Z,14.00
2023-10-21T10:35:00.353Z,13.88
2023-10-21T10:40:15.417Z,14.09
2023-10-21T10:45:00.576Z,14.21
2023-10-21T10:50:00.412Z,14.17
2023-10-21T10:55:00.390Z,14.38
2023-10-21T11:00:03.785Z,14.55
2023-10-21T11:05:00.552Z,14.87
2023-10-21T11:10:00.990Z,14.85
2023-10-21T11:15:00.403Z,14.91
2023-10-21T11:20:02.979Z,14.74
2023-10-21T11:25:02.383Z,14.60
2023-10-21T11:30:00.969Z,14.62
2023-10-21T11:35:02.508Z,14.48
2023-10-21T11:40:01.003Z,14.49
2023-10-21T11:45:00.992Z,14.94
2023-10-21T11:50:00.397Z,15.02
2023-10-21T11:55:00.399Z,14.95
2023-10-21T12:00:03.892Z,14.77
2023-10-21T12:05:00.573Z,14.95
2023-10-21T12:10:00.375Z,15.49
2023-10-21T12:15:00.462Z,15.65
2023-10-21T12:20:00.409Z,15.22
2023-10-21T12:25:00.359Z,15.41
2023-10-21T12:30:00.472Z,15.39
2023-10-21T12:35:00.535Z,15.33
2023-10-21T12:40:00.387Z,15.22
2023-10-21T12:45:00.412Z,15.15
2023-10-21T12:50:00.361Z,14.97
2023-10-21T12:55:00.421Z,15.45
2023-10-21T13:00:00.521Z,15.64
2023-10-21T13:05:00.415Z,16.13
2023-10-21T13:10:00.347Z,15.51
2023-10-21T13:15:00.356Z,15.36
2023-10-21T13:20:00.482Z,15.72
2023-10-21T13:25:16.853Z,15.66
2023-10-21T13:30:00.379Z,15.30
2023-10-21T13:35:00.397Z,15.57
2023-10-21T13:40:00.384Z,15.57
2023-10-21T13:45:00.348Z,14.92
2023-10-21T13:50:00.383Z,14.65
2023-10-21T13:55:00.458Z,14.56
2023-10-21T14:00:00.798Z,14.33
2023-10-21T14:05:00.352Z,14.25
2023-10-21T14:10:00.471Z,14.10
2023-10-21T14:15:00.338Z,13.88
2023-10-21T14:20:00.373Z,13.96
2023-10-21T14:25:00.415Z,14.02
2023-10-21T14:30:01.444Z,14.05
2023-10-21T14:35:00.454Z,13.81
2023-10-21T14:40:03.129Z,13.67
2023-10-21T14:45:00.454Z,13.59
2023-10-21T14:50:00.775Z,13.50
2023-10-21T14:55:00.399Z,13.54
2023-10-21T15:00:01.312Z,13.49
2023-10-21T15:05:00.919Z,13.35
2023-10-21T15:10:00.493Z,13.15
2023-10-21T15:15:00.484Z,13.09
2023-10-21T15:20:00.380Z,12.97
2023-10-21T15:25:00.442Z,12.78
2023-10-21T15:30:00.837Z,12.60
2023-10-21T15:35:00.457Z,12.42
2023-10-21T15:40:00.418Z,12.21
2023-10-21T15:45:01.366Z,12.00
2023-10-21T15:50:00.408Z,11.88
2023-10-21T15:55:00.520Z,11.81
2023-10-21T16:00:04.689Z,11.78
2023-10-21T16:05:00.480Z,11.77
2023-10-21T16:10:00.431Z,11.80
2023-10-21T16:15:00.684Z,11.79
2023-10-21T16:20:00.418Z,11.78
2023-10-21T16:25:00.456Z,11.75
2023-10-21T16:30:00.455Z,11.75
2023-10-21T16:35:00.470Z,11.80
2023-10-21T16:40:00.465Z,11.85
2023-10-21T16:45:00.387Z,11.90
2023-10-21T16:50:00.638Z,11.95
2023-10-21T16:55:00.439Z,11.99
2023-10-21T17:00:00.609Z,11.97
2023-10-21T17:05:00.392Z,11.92
2023-10-21T17:10:00.824Z,11.84
2023-10-21T17:15:00.414Z,11.78
2023-10-21T17:20:01.013Z,11.77
2023-10-21T17:25:00.393Z,11.79
2023-10-21T17:30:00.420Z,11.80
2023-10-21T17:35:00.366Z,11.83
2023-10-21T17:40:00.424Z,11.88
2023-10-21T17:45:00.420Z,11.89
2023-10-21T17:50:00.392Z,11.90
2023-10-21T17:55:00.469Z,12.00
2023-10-21T18:00:00.794Z,12.09
2023-10-21T18:05:00.601Z,12.16
2023-10-21T18:10:00.425Z,12.20
2023-10-21T18:15:02.714Z,12.27
2023-10-21T18:20:00.390Z,12.31
2023-10-21T18:25:00.518Z,12.28
2023-10-21T18:30:00.462Z,12.35
2023-10-21T18:35:00.395Z,12.36
2023-10-21T18:40:00.484Z,12.32
2023-10-21T18:45:00.389Z,12.27
2023-10-21T18:50:00.419Z,12.15
2023-10-21T18:55:02.341Z,12.13
2023-10-21T19:00:00.860Z,12.23
2023-10-21T19:05:00.421Z,12.35
2023-10-21T19:10:00.699Z,12.38
2023-10-21T19:15:00.467Z,12.40
2023-10-21T19:20:00.402Z,12.40
2023-10-21T19:25:00.456Z,12.33
2023-10-21T19:30:00.398Z,12.30
2023-10-21T19:35:00.512Z,12.29
2023-10-21T19:40:00.478Z,12.45
2023-10-21T19:45:00.365Z,12.58
2023-10-21T19:50:00.421Z,12.61
2023-10-21T19:55:00.423Z,12.67
2023-10-21T20:00:00.967Z,12.74
2023-10-21T20:05:00.399Z,12.80
2023-10-21T20:10:00.435Z,12.81
2023-10-21T20:15:00.435Z,12.69
2023-10-21T20:20:02.298Z,12.71
2023-10-21T20:25:01.180Z,12.76
2023-10-21T20:30:00.605Z,12.86
2023-10-21T20:35:00.438Z,12.91
2023-10-21T20:40:00.484Z,12.96
2023-10-21T20:45:00.457Z,12.90
2023-10-21T20:50:00.369Z,12.93
2023-10-21T20:55:00.508Z,12.90
2023-10-21T21:00:00.659Z,12.90
2023-10-21T21:05:12.427Z,12.94
2023-10-21T21:10:00.425Z,12.98
2023-10-21T21:15:00.391Z,13.04
2023-10-21T21:20:00.383Z,13.01
2023-10-21T21:25:00.540Z,13.00
2023-10-21T21:30:00.435Z,13.07
2023-10-21T21:35:00.487Z,13.08
2023-10-21T21:40:01.156Z,13.06
2023-10-21T21:45:00.476Z,13.08
2023-10-21T21:50:00.484Z,13.07
2023-10-21T21:55:00.384Z,13.09
2023-10-21T22:00:00.846Z,13.14
2023-10-21T22:05:00.444Z,13.10
2023-10-21T22:10:00.397Z,13.07
2023-10-21T22:15:00.591Z,13.08
2023-10-21T22:20:00.419Z,13.10
2023-10-21T22:25:00.581Z,13.02
2023-10-21T22:30:00.556Z,13.07
2023-10-21T22:35:00.398Z,13.02
2023-10-21T22:40:00.441Z,12.98
2023-10-21T22:45:00.534Z,12.90
2023-10-21T22:50:00.817Z,12.84
2023-10-21T22:55:00.436Z,12.83
2023-10-21T23:00:01.227Z,12.78
2023-10-21T23:05:00.536Z,12.79
2023-10-21T23:10:00.412Z,12.73
2023-10-21T23:15:00.495Z,12.55
2023-10-21T23:20:00.426Z,12.30
2023-10-21T23:25:00.470Z,12.25
2023-10-21T23:30:00.458Z,12.27
2023-10-21T23:35:00.390Z,12.24
2023-10-21T23:40:00.445Z,12.25
2023-10-21T23:45:00.561Z,12.31
2023-10-21T23:50:00.484Z,12.35
2023-10-21T23:55:00.713Z,12.37
